createdAt,value
2023-04-02T07:56:01.419Z,22.0952
2023-04-02T07:57:03.368Z,21.4302
2023-04-02T07:58:05.164Z,21.2661
2023-04-02T07:59:07.067Z,21.3047
2023-04-02T08:00:58.267Z,23.1591
2023-04-02T08:07:21.010Z,22.8060
2023-04-02T08:08:22.905Z,21.9864
2023-04-02T08:09:24.810Z,21.6469
2023-04-02T08:10:26.718Z,21.6514
2023-04-02T08:11:29.758Z,21.6946
2023-04-02T08:12:30.543Z,21.7196
2023-04-02T08:13:32.456Z,21.8100
2023-04-02T08:14:34.368Z,21.8685
2023-04-02T08:15:36.620Z,21.9877
2023-04-02T08:16:38.225Z,22.0735
2023-04-02T08:17:40.081Z,22.1421
2023-04-02T08:18:42.071Z,22.2005
2023-04-02T08:19:54.218Z,22.2582
2023-04-02T08:20:45.816Z,22.2958
2023-04-02T08:21:47.739Z,22.3426
2023-04-02T08:22:49.660Z,22.3666
2023-04-02T08:23:51.538Z,22.4053
2023-04-02T08:24:53.469Z,22.4375
2023-04-02T08:25:55.352Z,22.4558
2023-04-02T08:26:57.273Z,22.4956
2023-04-02T08:27:59.174Z,22.5260
2023-04-02T08:29:01.110Z,22.5394
2023-04-02T08:30:02.994Z,22.5585
2023-04-02T08:31:05.054Z,22.5833
2023-04-02T08:32:06.794Z,22.6033
2023-04-02T08:33:08.778Z,22.6250
2023-04-02T08:34:10.633Z,22.6616
2023-04-02T08:35:13.685Z,22.7013
2023-04-02T08:36:14.488Z,22.7181
2023-04-02T08:37:16.359Z,22.7542
2023-04-02T08:38:18.253Z,22.7744
2023-04-02T08:39:20.187Z,22.7547
2023-04-02T08:40:22.085Z,22.8276
2023-04-02T08:41:24.008Z,22.7177
2023-04-02T08:42:25.930Z,22.4486
2023-04-02T08:43:27.882Z,22.3962
2023-04-02T08:44:29.707Z,22.2266
2023-04-02T08:45:31.647Z,22.0986
2023-04-02T08:46:33.539Z,22.0672
2023-04-02T08:47:35.472Z,21.9940
2023-04-02T08:48:37.326Z,21.9324
2023-04-02T08:49:39.329Z,21.7395
2023-04-02T08:50:41.145Z,21.5606
2023-04-02T08:51:43.101Z,21.4594
2023-04-02T08:52:44.953Z,21.3885
2023-04-02T08:53:46.879Z,21.2279
2023-04-02T08:54:48.759Z,21.0533
2023-04-02T08:55:50.682Z,20.7803
2023-04-02T08:56:52.621Z,20.6505
2023-04-02T08:57:54.507Z,20.7659
2023-04-02T08:58:56.440Z,20.9606
2023-04-02T08:59:58.337Z,21.1315
2023-04-02T09:01:00.225Z,21.2295
2023-04-02T09:02:02.268Z,21.3295
2023-04-02T09:03:04.061Z,21.4199
2023-04-02T09:04:05.953Z,21.5536
2023-04-02T09:05:08.020Z,21.6309
2023-04-02T09:06:10.781Z,21.6693
2023-04-02T09:07:11.670Z,21.7040
2023-04-02T09:08:13.594Z,21.7488
2023-04-02T09:09:15.468Z,21.7866
2023-04-02T09:10:17.432Z,21.8275
2023-04-02T09:11:19.312Z,21.8515
2023-04-02T09:12:21.215Z,21.8870
2023-04-02T09:13:23.102Z,21.9127
2023-04-02T09:14:25.021Z,21.9328
2023-04-02T09:15:26.918Z,21.9616
2023-04-02T09:16:28.938Z,21.9947
2023-04-02T09:17:36.913Z,22.0246
2023-04-02T09:18:32.665Z,22.0505
2023-04-02T09:19:34.545Z,22.0739
2023-04-02T09:20:36.473Z,22.0912
2023-04-02T09:21:38.379Z,22.1415
2023-04-02T09:22:40.284Z,22.1557
2023-04-02T09:23:42.168Z,22.1573
2023-04-02T09:24:44.106Z,22.1900
2023-04-02T09:25:54.125Z,22.1945
2023-04-02T09:26:47.915Z,22.2239
2023-04-02T09:27:49.799Z,22.2200
2023-04-02T09:28:51.735Z,22.2438
2023-04-02T09:29:53.625Z,22.2627
2023-04-02T09:30:55.552Z,22.2674
2023-04-02T09:31:57.480Z,22.2726
2023-04-02T09:32:59.398Z,22.2921
2023-04-02T09:34:01.260Z,22.2878
2023-04-02T09:35:07.465Z,22.3038
2023-04-02T09:36:05.098Z,22.3293
2023-04-02T09:37:07.018Z,22.3475
2023-04-02T09:38:08.879Z,22.3582
2023-04-02T09:39:10.815Z,22.3837
2023-04-02T09:40:12.704Z,22.4067
2023-04-02T09:41:14.643Z,22.4338
2023-04-02T09:42:16.554Z,22.4439
2023-04-02T09:43:18.954Z,22.4511
2023-04-02T09:44:20.336Z,22.4490
2023-04-02T09:45:22.306Z,22.4620
2023-04-02T09:46:24.270Z,22.4537
2023-04-02T09:47:26.130Z,22.4642
2023-04-02T09:48:27.977Z,22.4739
2023-04-02T09:49:29.930Z,22.4648
2023-04-02T09:50:31.808Z,22.4685
2023-04-02T09:51:33.745Z,22.4724
2023-04-02T09:52:35.616Z,22.4792
2023-04-02T09:53:37.552Z,22.4926
2023-04-02T09:54:39.434Z,22.4899
2023-04-02T09:55:41.356Z,22.4944
2023-04-02T09:56:43.274Z,22.5133
2023-04-02T09:57:45.185Z,22.5168
2023-04-02T09:58:47.080Z,22.5349
2023-04-02T09:59:49.017Z,22.5361
2023-04-02T10:00:50.914Z,22.5439
2023-04-02T10:01:52.835Z,22.5435
2023-04-02T10:02:54.754Z,22.5396
2023-04-02T10:03:56.720Z,22.5394
2023-04-02T10:04:58.521Z,22.5513
2023-04-02T10:06:00.489Z,22.5605
2023-04-02T10:07:02.358Z,22.5704
2023-04-02T10:08:04.280Z,22.5624
2023-04-02T10:09:06.158Z,22.5684
2023-04-02T10:10:08.076Z,22.5782
2023-04-02T10:11:10.002Z,22.5803
2023-04-02T10:12:11.891Z,22.5858
2023-04-02T10:13:13.810Z,22.5926
2023-04-02T10:14:15.749Z,22.5850
2023-04-02T10:15:17.617Z,22.6045
2023-04-02T10:16:19.637Z,22.6185
2023-04-02T10:17:22.484Z,22.6098
2023-04-02T10:18:23.368Z,22.6203
2023-04-02T10:19:25.261Z,22.6372
2023-04-02T10:20:27.201Z,22.6343
2023-04-02T10:21:29.067Z,22.6433
2023-04-02T10:22:30.992Z,22.6524
2023-04-02T10:23:32.880Z,22.6554
2023-04-02T10:24:34.812Z,22.6630
2023-04-02T10:25:36.903Z,22.6688
2023-04-02T10:26:38.636Z,22.6731
2023-04-02T10:27:40.534Z,22.6776
2023-04-02T10:28:42.451Z,22.6762
2023-04-02T10:29:44.339Z,22.6723
2023-04-02T10:30:46.372Z,22.6669
2023-04-02T10:31:48.150Z,22.6645
2023-04-02T10:32:50.124Z,22.6770
2023-04-02T10:33:51.973Z,22.6842
2023-04-02T10:34:53.933Z,22.6713
2023-04-02T10:35:55.812Z,22.6768
2023-04-02T10:36:57.741Z,22.6842
2023-04-02T10:37:59.608Z,22.6801
2023-04-02T10:39:01.539Z,22.6852
2023-04-02T10:40:03.428Z,22.7041
2023-04-02T10:41:05.352Z,22.7173
2023-04-02T10:42:07.241Z,22.7169
2023-04-02T10:43:09.171Z,22.7144
2023-04-02T10:44:19.603Z,22.7212
2023-04-02T10:45:12.984Z,22.7197
2023-04-02T10:46:14.906Z,22.7234
2023-04-02T10:47:16.826Z,22.7298
2023-04-02T10:48:18.694Z,22.7302
2023-04-02T10:49:20.676Z,22.7247
2023-04-02T10:50:22.524Z,22.7220
2023-04-02T10:51:24.452Z,22.7282
2023-04-02T10:52:26.417Z,22.7351
2023-04-02T10:53:28.274Z,22.7304
2023-04-02T10:54:30.165Z,22.7401
2023-04-02T10:55:32.086Z,22.7432
2023-04-02T10:56:44.042Z,22.7458
2023-04-02T10:57:36.027Z,22.7651
2023-04-02T10:58:37.784Z,22.7684
2023-04-02T10:59:39.712Z,22.7481
2023-04-02T11:00:41.601Z,22.7711
2023-04-02T11:01:43.591Z,22.7699
2023-04-02T11:02:45.500Z,22.7670
2023-04-02T11:03:47.455Z,22.7736
2023-04-02T11:04:49.251Z,22.7816
2023-04-02T11:05:51.182Z,22.7929
2023-04-02T11:06:58.096Z,22.7937
2023-04-02T11:07:54.999Z,22.8058
2023-04-02T11:08:56.885Z,22.7865
2023-04-02T11:09:58.799Z,22.7998
2023-04-02T11:11:01.822Z,22.8165
2023-04-02T11:12:02.652Z,22.8383
2023-04-02T11:13:04.537Z,22.8300
2023-04-02T11:14:06.749Z,22.8167
2023-04-02T11:15:08.341Z,22.8526
2023-04-02T11:16:10.275Z,22.8783
2023-04-02T11:17:12.141Z,22.9011
2023-04-02T11:18:14.094Z,22.8970
2023-04-02T11:19:15.996Z,22.9348
2023-04-02T11:20:17.909Z,22.9494
2023-04-02T11:21:19.807Z,22.9699
2023-04-02T11:22:21.713Z,22.9802
2023-04-02T11:23:23.668Z,22.9744
2023-04-02T11:24:25.550Z,22.9888
2023-04-02T11:25:27.425Z,22.9898
2023-04-02T11:26:29.371Z,22.9691
2023-04-02T11:27:31.265Z,22.9958
2023-04-02T11:28:33.169Z,23.0046
2023-04-02T11:29:35.383Z,22.9952
2023-04-02T11:30:36.999Z,23.0229
2023-04-02T11:31:38.960Z,23.0433
2023-04-02T11:32:40.818Z,23.0589
2023-04-02T11:33:45.370Z,23.0708
2023-04-02T11:34:44.623Z,23.0771
2023-04-02T11:35:46.603Z,23.0786
2023-04-02T11:36:48.437Z,23.0755
2023-04-02T11:37:52.340Z,23.0774
2023-04-02T11:38:53.342Z,23.0704
2023-04-02T11:39:54.140Z,23.0646
2023-04-02T11:40:56.072Z,23.0804
2023-04-02T11:41:57.984Z,23.0874
2023-04-02T11:42:59.903Z,23.0796
2023-04-02T11:44:01.771Z,23.0825
2023-04-02T11:45:03.705Z,23.0747
2023-04-02T11:46:05.618Z,23.0798
2023-04-02T11:47:07.537Z,23.0739
2023-04-02T11:48:09.431Z,23.0837
2023-04-02T11:49:11.344Z,23.0802
2023-04-02T11:50:13.226Z,23.0839
2023-04-02T11:51:15.162Z,23.0915
2023-04-02T11:52:17.045Z,23.0938
2023-04-02T11:53:19.008Z,23.1045
2023-04-02T11:54:20.880Z,23.1176
2023-04-02T11:55:22.818Z,23.1186
2023-04-02T11:56:24.708Z,23.1057
2023-04-02T11:57:26.690Z,23.1223
2023-04-02T11:58:28.501Z,23.1365
2023-04-02T11:59:30.454Z,23.1431
2023-04-02T12:00:32.344Z,23.1546
2023-04-02T12:01:34.261Z,23.1519
2023-04-02T12:02:36.206Z,23.1642
2023-04-02T12:03:38.081Z,23.1864
2023-04-02T12:04:39.980Z,23.1909
2023-04-02T12:05:41.992Z,23.1716
2023-04-02T12:06:43.792Z,23.1813
2023-04-02T12:07:45.707Z,23.1905
2023-04-02T12:08:57.156Z,23.1926
2023-04-02T12:09:49.607Z,23.2068
2023-04-02T12:10:51.485Z,23.2076
2023-04-02T12:11:53.422Z,23.2205
2023-04-02T12:12:55.297Z,23.2388
2023-04-02T12:13:57.241Z,23.2248
2023-04-02T12:14:59.144Z,23.2536
2023-04-02T12:16:01.069Z,23.2448
2023-04-02T12:17:02.996Z,23.2314
2023-04-02T12:18:04.889Z,23.2328
2023-04-02T12:19:06.755Z,23.2146
2023-04-02T12:20:08.731Z,23.1858
2023-04-02T12:21:10.585Z,23.1809
2023-04-02T12:22:12.502Z,23.2000
2023-04-02T12:23:14.393Z,23.1860
2023-04-02T12:24:16.319Z,23.1872
2023-04-02T12:25:18.215Z,23.1868
2023-04-02T12:26:21.473Z,23.1987
2023-04-02T12:27:23.046Z,23.2043
2023-04-02T12:28:23.962Z,23.1819
2023-04-02T12:29:25.835Z,23.2263
2023-04-02T12:30:27.770Z,23.2269
2023-04-02T12:31:29.775Z,23.2298
2023-04-02T12:32:31.621Z,23.2489
2023-04-02T12:33:33.517Z,23.2211
2023-04-02T12:34:35.380Z,23.2252
2023-04-02T12:35:37.316Z,23.2487
2023-04-02T12:36:39.206Z,23.2678
2023-04-02T12:37:41.149Z,23.2737
2023-04-02T12:38:43.008Z,23.2645
2023-04-02T12:39:44.932Z,23.2224
2023-04-02T12:40:46.870Z,23.1460
2023-04-02T12:41:48.755Z,23.2314
2023-04-02T12:42:50.636Z,23.2320
2023-04-02T12:43:52.568Z,23.2308
2023-04-02T12:44:54.461Z,23.2513
2023-04-02T12:45:56.414Z,23.2386
2023-04-02T12:46:58.285Z,23.2448
2023-04-02T12:48:00.241Z,23.2737
2023-04-02T12:49:02.083Z,23.2702
2023-04-02T12:50:04.020Z,23.2850
2023-04-02T12:51:05.927Z,23.2910
2023-04-02T12:52:07.876Z,23.3132
2023-04-02T12:53:09.712Z,23.3265
2023-04-02T12:54:11.669Z,23.2787
2023-04-02T12:55:13.582Z,23.3025
2023-04-02T12:56:15.509Z,23.2955
2023-04-02T12:57:17.391Z,23.3384
2023-04-02T12:58:19.269Z,23.3699
2023-04-02T12:59:21.156Z,23.3668
2023-04-02T13:00:23.101Z,23.3789
2023-04-02T13:01:25.603Z,23.3818
2023-04-02T13:02:27.120Z,23.3908
2023-04-02T13:03:29.239Z,23.3754
2023-04-02T13:04:30.770Z,23.3824
2023-04-02T13:05:32.694Z,23.3762
2023-04-02T13:06:34.604Z,23.3532
2023-04-02T13:07:36.537Z,23.3454
2023-04-02T13:08:38.407Z,23.3193
2023-04-02T13:09:40.309Z,23.3183
2023-04-02T13:10:42.244Z,23.3434
2023-04-02T13:11:44.145Z,23.3534
2023-04-02T13:12:46.073Z,23.3768
2023-04-02T13:13:47.922Z,23.3779
2023-04-02T13:14:49.853Z,23.3674
2023-04-02T13:15:51.798Z,23.3538
2023-04-02T13:16:53.706Z,23.3481
2023-04-02T13:17:55.613Z,23.3775
2023-04-02T13:18:57.486Z,23.3296
2023-04-02T13:19:59.483Z,23.3302
2023-04-02T13:21:01.295Z,23.3292
2023-04-02T13:22:03.219Z,23.3337
2023-04-02T13:23:05.121Z,23.3493
2023-04-02T13:24:07.028Z,23.3450
2023-04-02T13:25:08.922Z,23.3602
2023-04-02T13:26:10.812Z,23.3429
2023-04-02T13:27:12.746Z,23.3639
2023-04-02T13:28:14.640Z,23.3364
2023-04-02T13:29:16.559Z,23.3247
2023-04-02T13:30:18.456Z,23.3093
2023-04-02T13:31:20.416Z,23.3392
2023-04-02T13:32:22.295Z,23.3448
2023-04-02T13:33:24.212Z,23.3444
2023-04-02T13:34:26.076Z,23.3495
2023-04-02T13:35:28.003Z,23.3481
2023-04-02T13:36:29.891Z,23.3814
2023-04-02T13:37:31.859Z,23.4011
2023-04-02T13:38:33.693Z,23.3770
2023-04-02T13:39:35.713Z,23.3957
2023-04-02T13:40:37.833Z,23.3959
2023-04-02T13:41:39.427Z,23.3822
2023-04-02T13:42:41.349Z,23.3740
2023-04-02T13:43:43.247Z,23.3719
2023-04-02T13:44:45.126Z,23.3520
2023-04-02T13:45:47.125Z,23.3701
2023-04-02T13:46:48.934Z,23.3762
2023-04-02T13:47:50.906Z,23.4021
2023-04-02T13:48:52.778Z,23.3980
2023-04-02T13:49:54.684Z,23.3924
2023-04-02T13:50:56.586Z,23.4066
2023-04-02T13:51:58.574Z,23.4362
2023-04-02T13:53:01.015Z,23.4216
2023-04-02T13:54:06.759Z,23.4508
2023-04-02T13:55:04.339Z,23.4272
2023-04-02T13:56:06.098Z,23.4101
2023-04-02T13:57:08.004Z,23.3953
2023-04-02T13:58:09.902Z,23.4122
2023-04-02T13:59:11.797Z,23.4325
2023-04-02T14:00:13.752Z,23.4545
2023-04-02T14:01:15.691Z,23.4448
2023-04-02T14:02:17.766Z,23.4709
2023-04-02T14:03:19.493Z,23.4343
2023-04-02T14:04:21.453Z,23.4524
2023-04-02T14:05:23.249Z,23.4329
2023-04-02T14:06:25.518Z,23.4218
2023-04-02T14:07:27.080Z,23.4280
2023-04-02T14:08:30.249Z,23.4337
2023-04-02T14:09:30.883Z,23.4350
2023-04-02T14:10:34.618Z,23.4200
2023-04-02T14:11:34.699Z,23.4066
2023-04-02T14:12:36.655Z,23.4337
2023-04-02T14:13:38.508Z,23.4216
2023-04-02T14:14:40.772Z,23.4064
2023-04-02T14:15:42.338Z,23.4079
2023-04-02T14:16:44.286Z,23.4290
2023-04-02T14:17:46.199Z,23.4097
2023-04-02T14:18:48.058Z,23.4187
2023-04-02T14:19:49.954Z,23.4169
2023-04-02T14:20:51.930Z,23.4208
2023-04-02T14:21:54.331Z,23.3992
2023-04-02T14:22:55.705Z,23.4146
2023-04-02T14:23:57.578Z,23.4278
2023-04-02T14:24:59.522Z,23.4516
2023-04-02T14:26:01.416Z,23.4346
2023-04-02T14:27:04.296Z,23.4571
2023-04-02T14:28:05.275Z,23.4563
2023-04-02T14:29:07.165Z,23.4411
2023-04-02T14:30:09.089Z,23.4563
2023-04-02T14:31:11.021Z,23.4561
2023-04-02T14:32:14.404Z,23.4559
2023-04-02T14:33:14.926Z,23.4650
2023-04-02T14:34:16.665Z,23.4409
2023-04-02T14:35:18.611Z,23.4216
2023-04-02T14:36:20.459Z,23.4296
2023-04-02T14:37:22.400Z,23.4664
2023-04-02T14:38:24.472Z,23.4943
2023-04-02T14:39:26.252Z,23.4947
2023-04-02T14:40:28.126Z,23.4937
2023-04-02T14:41:30.077Z,23.4574
2023-04-02T14:42:32.009Z,23.4333
2023-04-02T14:43:33.899Z,23.4434
2023-04-02T14:44:35.761Z,23.4294
2023-04-02T14:45:37.720Z,23.4405
2023-04-02T14:46:39.657Z,23.4083
2023-04-02T14:47:41.542Z,23.4251
2023-04-02T14:48:43.426Z,23.4222
2023-04-02T14:49:45.374Z,23.4107
2023-04-02T14:50:47.726Z,23.3939
2023-04-02T14:51:49.117Z,23.4122
2023-04-02T14:52:51.055Z,23.4025
2023-04-02T14:53:53.006Z,23.4231
2023-04-02T14:54:54.976Z,23.4060
2023-04-02T14:55:56.754Z,23.4113
2023-04-02T14:56:58.783Z,23.3951
2023-04-02T14:58:00.597Z,23.3826
2023-04-02T14:59:03.508Z,23.3920
2023-04-02T15:00:04.405Z,23.3941
2023-04-02T15:01:06.317Z,23.3976
2023-04-02T15:02:08.248Z,23.3957
2023-04-02T15:03:10.191Z,23.3959
2023-04-02T15:04:12.015Z,23.4315
2023-04-02T15:05:13.945Z,23.4196
2023-04-02T15:06:15.880Z,23.4228
2023-04-02T15:07:17.778Z,23.3980
2023-04-02T15:08:19.675Z,23.4210
2023-04-02T15:09:21.591Z,23.4366
2023-04-02T15:10:23.476Z,23.4218
2023-04-02T15:11:27.576Z,23.3803
2023-04-02T15:12:27.268Z,23.3949
2023-04-02T15:13:29.188Z,23.3968
2023-04-02T15:14:31.095Z,23.3762
2023-04-02T15:15:39.278Z,23.3711
2023-04-02T15:16:35.772Z,23.3703
2023-04-02T15:17:36.850Z,23.4091
2023-04-02T15:18:39.743Z,23.3904
2023-04-02T15:19:40.679Z,23.4007
2023-04-02T15:20:42.696Z,23.3735
2023-04-02T15:21:55.621Z,23.3635
2023-04-02T15:22:46.379Z,23.3690
2023-04-02T15:23:48.447Z,23.3524
2023-04-02T15:24:50.195Z,23.3444
2023-04-02T15:25:52.068Z,23.3563
2023-04-02T15:26:53.995Z,23.3403
2023-04-02T15:27:55.856Z,23.3434
2023-04-02T15:28:57.827Z,23.3421
2023-04-02T15:29:59.684Z,23.3240
2023-04-02T15:31:01.612Z,23.3171
2023-04-02T15:32:03.508Z,23.3220
2023-04-02T15:33:05.455Z,23.3288
2023-04-02T15:34:07.303Z,23.3051
2023-04-02T15:35:09.227Z,23.3125
2023-04-02T15:36:11.168Z,23.3082
2023-04-02T15:37:13.100Z,23.3193
2023-04-02T15:38:14.940Z,23.3249
2023-04-02T15:39:16.872Z,23.3095
2023-04-02T15:40:18.740Z,23.3185
2023-04-02T15:41:22.975Z,23.3214
2023-04-02T15:42:22.583Z,23.3006
2023-04-02T15:43:24.492Z,23.3275
2023-04-02T15:44:26.376Z,23.3068
2023-04-02T15:45:29.582Z,23.3107
2023-04-02T15:46:30.299Z,23.3140
2023-04-02T15:47:32.622Z,23.2914
2023-04-02T15:48:34.162Z,23.2879
2023-04-02T15:49:35.962Z,23.2747
2023-04-02T15:50:38.382Z,23.2579
2023-04-02T15:51:39.734Z,23.2657
2023-04-02T15:52:41.641Z,23.2686
2023-04-02T15:53:43.566Z,23.2528
2023-04-02T15:54:45.473Z,23.2411
2023-04-02T15:55:47.386Z,23.2489
2023-04-02T15:56:49.355Z,23.2380
2023-04-02T15:57:51.183Z,23.2367
2023-04-02T15:58:53.088Z,23.2308
2023-04-02T15:59:55.077Z,23.2154
2023-04-02T16:00:56.933Z,23.2158
2023-04-02T16:01:58.860Z,23.2170
2023-04-02T16:03:00.756Z,23.2119
2023-04-02T16:04:02.720Z,23.2109
2023-04-02T16:05:04.540Z,23.2033
2023-04-02T16:06:07.268Z,23.2100
2023-04-02T16:07:08.474Z,23.2088
2023-04-02T16:08:10.431Z,23.2096
2023-04-02T16:09:12.846Z,23.2037
2023-04-02T16:10:14.190Z,23.1983
2023-04-02T16:11:16.158Z,23.1971
2023-04-02T16:12:17.986Z,23.1996
2023-04-02T16:13:19.781Z,23.1938
2023-04-02T16:14:21.767Z,23.1916
2023-04-02T16:15:24.035Z,23.1807
2023-04-02T16:16:25.814Z,23.1778
2023-04-02T16:17:27.652Z,23.1825
2023-04-02T16:18:29.385Z,23.1953
2023-04-02T16:19:31.289Z,23.1798
2023-04-02T16:20:33.453Z,23.1698
2023-04-02T16:21:35.218Z,23.1579
2023-04-02T16:22:38.027Z,23.1846
2023-04-02T16:23:39.081Z,23.1815
2023-04-02T16:24:40.827Z,23.2080
2023-04-02T16:25:42.826Z,23.1946
2023-04-02T16:26:44.651Z,23.1825
2023-04-02T16:27:46.668Z,23.1809
2023-04-02T16:28:48.478Z,23.1649
2023-04-02T16:29:54.201Z,23.1877
2023-04-02T16:30:52.331Z,23.1766
2023-04-02T16:31:54.196Z,23.1786
2023-04-02T16:32:56.227Z,23.1741
2023-04-02T16:33:58.714Z,23.1749
2023-04-02T16:35:15.232Z,23.1718
2023-04-02T16:36:02.894Z,23.1811
2023-04-02T16:37:03.724Z,23.1757
2023-04-02T16:38:05.597Z,23.1792
2023-04-02T16:39:07.536Z,23.1751
2023-04-02T16:40:09.447Z,23.1601
2023-04-02T16:41:11.397Z,23.1575
2023-04-02T16:42:13.227Z,23.1661
2023-04-02T16:43:15.161Z,23.1599
2023-04-02T16:44:17.040Z,23.1605
2023-04-02T16:45:19.356Z,23.1805
2023-04-02T16:46:31.682Z,23.1692
2023-04-02T16:47:22.830Z,23.1513
2023-04-02T16:48:24.685Z,23.1624
2023-04-02T16:49:26.617Z,23.1521
2023-04-02T16:50:28.479Z,23.1544
2023-04-02T16:51:30.403Z,23.1552
2023-04-02T16:52:32.292Z,23.1622
2023-04-02T16:53:34.228Z,23.1515
2023-04-02T16:54:36.121Z,23.1334
2023-04-02T16:55:38.014Z,23.1464
2023-04-02T16:56:39.930Z,23.1355
2023-04-02T16:57:41.843Z,23.1347
2023-04-02T16:58:43.762Z,23.1180
2023-04-02T16:59:45.681Z,23.1205
2023-04-02T17:00:47.567Z,23.1240
2023-04-02T17:01:49.490Z,23.1246
2023-04-02T17:02:51.410Z,23.1242
2023-04-02T17:03:53.557Z,23.1320
2023-04-02T17:04:55.171Z,23.1223
2023-04-02T17:05:57.112Z,23.1160
2023-04-02T17:06:59.278Z,23.1096
2023-04-02T17:08:00.900Z,23.1094
2023-04-02T17:09:02.801Z,23.0999
2023-04-02T17:10:04.693Z,23.1028
2023-04-02T17:11:06.727Z,23.1149
2023-04-02T17:12:08.595Z,23.1014
2023-04-02T17:13:10.456Z,23.0928
2023-04-02T17:14:12.395Z,23.0903
2023-04-02T17:15:20.951Z,23.0808
2023-04-02T17:16:16.154Z,23.0806
2023-04-02T17:17:18.057Z,23.0615
2023-04-02T17:18:20.162Z,23.0751
2023-04-02T17:19:21.880Z,23.0720
2023-04-02T17:20:23.749Z,23.0675
2023-04-02T17:21:25.680Z,23.0706
2023-04-02T17:22:27.571Z,23.0667
2023-04-02T17:23:29.488Z,23.0671
2023-04-02T17:24:31.374Z,23.0646
2023-04-02T17:25:33.301Z,23.0644
2023-04-02T17:26:35.190Z,23.0593
2023-04-02T17:27:37.123Z,23.0582
2023-04-02T17:28:39.011Z,23.0576
2023-04-02T17:29:40.970Z,23.0527
2023-04-02T17:30:42.809Z,23.0860
2023-04-02T17:31:44.770Z,23.0907
2023-04-02T17:32:46.721Z,23.0862
2023-04-02T17:33:48.557Z,23.0813
2023-04-02T17:34:50.436Z,23.0997
2023-04-02T17:35:52.392Z,23.0891
2023-04-02T17:36:55.247Z,23.0843
2023-04-02T17:37:56.195Z,23.0784
2023-04-02T17:38:58.191Z,23.0652
2023-04-02T17:39:59.975Z,23.0671
2023-04-02T17:41:01.856Z,23.0654
2023-04-02T17:42:04.035Z,23.0652
2023-04-02T17:43:05.723Z,23.0613
2023-04-02T17:44:07.790Z,23.0626
2023-04-02T17:45:09.497Z,23.0585
2023-04-02T17:46:11.551Z,23.0656
2023-04-02T17:47:14.385Z,22.9960
2023-04-02T17:48:16.370Z,22.9822
2023-04-02T17:49:17.317Z,23.0428
2023-04-02T17:50:19.078Z,23.0650
2023-04-02T17:51:20.982Z,23.1028
2023-04-02T17:52:22.915Z,23.1154
2023-04-02T17:53:24.760Z,23.1223
2023-04-02T17:54:26.898Z,23.1445
2023-04-02T17:55:28.561Z,23.1638
2023-04-02T17:56:30.988Z,23.1642
2023-04-02T17:57:32.861Z,23.1698
2023-04-02T17:58:34.299Z,23.1811
2023-04-02T17:59:36.205Z,23.1831
2023-04-02T18:00:38.821Z,23.1805
2023-04-02T18:01:40.098Z,23.1854
2023-04-02T18:02:42.041Z,23.2086
2023-04-02T18:03:43.867Z,23.2068
2023-04-02T18:04:45.894Z,23.2084
2023-04-02T18:05:47.757Z,23.2187
2023-04-02T18:06:49.550Z,23.2222
2023-04-02T18:07:51.599Z,23.2170
2023-04-02T18:08:53.343Z,23.2024
2023-04-02T18:09:55.227Z,23.2092
2023-04-02T18:10:57.206Z,23.2277
2023-04-02T18:12:00.534Z,23.2306
2023-04-02T18:23:41.598Z,25.0092
2023-04-02T18:24:43.518Z,24.2153
